sensor_id;sensor_type;location;lat;lon;timestamp;pressure;altitude;pressure_sealevel;temperature;humidity
64362;BME280;50685;53.346;-6.296;2023-04-29T00:02:03;101529.25;;;11.04;86.76
64362;BME280;50685;53.346;-6.296;2023-04-29T00:04:37;101611.44;;;11.46;86.88
64362;BME280;50685;53.346;-6.296;2023-04-29T00:10:26;101554.03;;;11.06;87.15
64362;BME280;50685;53.346;-6.296;2023-04-29T00:13:08;101537.22;;;11.00;87.69
64362;BME280;50685;53.346;-6.296;2023-04-29T00:15:40;101609.69;;;11.37;87.17
64362;BME280;50685;53.346;-6.296;2023-04-29T00:18:08;101580.56;;;11.14;87.39
64362;BME280;50685;53.346;-6.296;2023-04-29T00:20:43;101589.44;;;11.10;87.25
64362;BME280;50685;53.346;-6.296;2023-04-29T00:26:13;101618.59;;;11.27;87.54
64362;BME280;50685;53.346;-6.296;2023-04-29T00:28:45;101561.13;;;10.87;88.24
64362;BME280;50685;53.346;-6.296;2023-04-29T00:31:20;101615.06;;;11.23;90.05
64362;BME280;50685;53.346;-6.296;2023-04-29T00:33:56;101592.94;;;11.06;89.57
64362;BME280;50685;53.346;-6.296;2023-04-29T00:36:33;101609.72;;;11.28;88.73
64362;BME280;50685;53.346;-6.296;2023-04-29T00:39:03;101553.19;;;10.89;89.12
64362;BME280;50685;53.346;-6.296;2023-04-29T00:41:46;101569.97;;;10.92;88.73
64362;BME280;50685;53.346;-6.296;2023-04-29T00:44:36;101615.91;;;11.25;88.80
64362;BME280;50685;53.346;-6.296;2023-04-29T00:47:13;101569.13;;;10.90;87.74
64362;BME280;50685;53.346;-6.296;2023-04-29T00:49:47;101549.66;;;10.77;87.43
64362;BME280;50685;53.346;-6.296;2023-04-29T00:52:22;101551.44;;;10.75;87.28
64362;BME280;50685;53.346;-6.296;2023-04-29T00:55:01;101544.38;;;10.64;87.46
64362;BME280;50685;53.346;-6.296;2023-04-29T00:57:45;101593.84;;;10.92;87.40
64362;BME280;50685;53.346;-6.296;2023-04-29T01:00:17;101547.03;;;10.60;87.36
64362;BME280;50685;53.346;-6.296;2023-04-29T01:02:46;101575.31;;;10.72;87.11
64362;BME280;50685;53.346;-6.296;2023-04-29T01:05:14;101551.44;;;10.51;87.60
64362;BME280;50685;53.346;-6.296;2023-04-29T01:07:56;101562.97;;;10.56;87.52
64362;BME280;50685;53.346;-6.296;2023-04-29T01:10:43;101563.84;;;10.55;87.72
64362;BME280;50685;53.346;-6.296;2023-04-29T01:13:41;101572.69;;;10.63;87.96
64362;BME280;50685;53.346;-6.296;2023-04-29T01:16:10;101614.22;;;10.84;88.43
64362;BME280;50685;53.346;-6.296;2023-04-29T01:19:03;101572.69;;;10.65;88.17
64362;BME280;50685;53.346;-6.296;2023-04-29T01:21:45;101582.38;;;10.69;87.77
64362;BME280;50685;53.346;-6.296;2023-04-29T01:24:16;101548.81;;;10.49;87.80
64362;BME280;50685;53.346;-6.296;2023-04-29T01:26:58;101586.81;;;10.76;87.89
64362;BME280;50685;53.346;-6.296;2023-04-29T01:32:04;101562.06;;;10.46;88.58
64362;BME280;50685;53.346;-6.296;2023-04-29T01:34:36;101614.22;;;10.81;88.29
64362;BME280;50685;53.346;-6.296;2023-04-29T01:37:27;101605.41;;;10.79;88.46
64362;BME280;50685;53.346;-6.296;2023-04-29T01:40:19;101582.41;;;10.63;88.14
64362;BME280;50685;53.346;-6.296;2023-04-29T01:42:54;101572.66;;;10.49;87.70
64362;BME280;50685;53.346;-6.296;2023-04-29T01:45:31;101547.88;;;10.33;87.94
64362;BME280;50685;53.346;-6.296;2023-04-29T01:48:01;101556.72;;;10.32;87.78
64362;BME280;50685;53.346;-6.296;2023-04-29T01:50:37;101548.75;;;10.31;87.71
64362;BME280;50685;53.346;-6.296;2023-04-29T01:53:13;101588.56;;;10.51;88.42
64362;BME280;50685;53.346;-6.296;2023-04-29T01:55:45;101563.78;;;10.33;88.12
64362;BME280;50685;53.346;-6.296;2023-04-29T01:58:33;101563.81;;;10.24;88.44
64362;BME280;50685;53.346;-6.296;2023-04-29T02:01:03;101550.50;;;10.16;88.85
64362;BME280;50685;53.346;-6.296;2023-04-29T02:07:32;101558.47;;;10.10;88.70
64362;BME280;50685;53.346;-6.296;2023-04-29T02:10:13;101557.59;;;10.08;88.72
64362;BME280;50685;53.346;-6.296;2023-04-29T02:13:01;101584.09;;;10.25;89.07
64362;BME280;50685;53.346;-6.296;2023-04-29T02:15:48;101557.59;;;10.11;88.84
64362;BME280;50685;53.346;-6.296;2023-04-29T02:18:32;101578.78;;;10.11;89.31
64362;BME280;50685;53.346;-6.296;2023-04-29T02:21:16;101561.09;;;9.99;90.15
64362;BME280;50685;53.346;-6.296;2023-04-29T02:23:56;101549.63;;;9.91;89.58
64362;BME280;50685;53.346;-6.296;2023-04-29T02:29:08;101556.69;;;9.93;89.70
64362;BME280;50685;53.346;-6.296;2023-04-29T02:31:48;101558.47;;;9.94;90.04
64362;BME280;50685;53.346;-6.296;2023-04-29T02:40:38;101559.31;;;9.87;89.98
64362;BME280;50685;53.346;-6.296;2023-04-29T02:43:32;101561.97;;;9.89;90.98
64362;BME280;50685;53.346;-6.296;2023-04-29T02:46:27;101592.03;;;10.06;90.71
64362;BME280;50685;53.346;-6.296;2023-04-29T02:49:19;101632.72;;;10.27;90.71
64362;BME280;50685;53.346;-6.296;2023-04-29T02:51:55;101638.94;;;10.27;90.79
64362;BME280;50685;53.346;-6.296;2023-04-29T02:57:25;101561.09;;;9.88;90.06
64362;BME280;50685;53.346;-6.296;2023-04-29T03:00:01;101637.16;;;10.26;90.51
64362;BME280;50685;53.346;-6.296;2023-04-29T03:02:54;101597.34;;;10.05;90.20
64362;BME280;50685;53.346;-6.296;2023-04-29T03:05:28;101562.81;;;9.83;89.67
64362;BME280;50685;53.346;-6.296;2023-04-29T03:08:09;101592.91;;;9.94;89.92
64362;BME280;50685;53.346;-6.296;2023-04-29T03:11:01;101574.31;;;9.82;89.78
64362;BME280;50685;53.346;-6.296;2023-04-29T03:13:38;101580.50;;;9.84;90.04
64362;BME280;50685;53.346;-6.296;2023-04-29T03:16:14;101621.19;;;10.11;90.28
64362;BME280;50685;53.346;-6.296;2023-04-29T03:19:01;101620.31;;;10.06;90.43
64362;BME280;50685;53.346;-6.296;2023-04-29T03:22:06;101650.38;;;10.22;90.33
64362;BME280;50685;53.346;-6.296;2023-04-29T03:24:49;101609.69;;;9.98;90.26
64362;BME280;50685;53.346;-6.296;2023-04-29T03:30:13;101655.72;;;10.31;90.18
64362;BME280;50685;53.346;-6.296;2023-04-29T03:32:48;101596.44;;;10.00;90.34
64362;BME280;50685;53.346;-6.296;2023-04-29T03:35:38;101589.38;;;9.99;90.46
64362;BME280;50685;53.346;-6.296;2023-04-29T03:38:13;101630.94;;;10.26;90.23
64362;BME280;50685;53.346;-6.296;2023-04-29T03:40:59;101647.81;;;10.43;90.57
64362;BME280;50685;53.346;-6.296;2023-04-29T03:43:31;101573.47;;;10.03;90.20
64362;BME280;50685;53.346;-6.296;2023-04-29T03:46:32;101630.13;;;10.41;90.40
64362;BME280;50685;53.346;-6.296;2023-04-29T03:49:06;101652.25;;;10.55;90.02
64362;BME280;50685;53.346;-6.296;2023-04-29T03:51:40;101610.63;;;10.36;90.61
64362;BME280;50685;53.346;-6.296;2023-04-29T03:54:42;101586.75;;;10.29;90.58
64362;BME280;50685;53.346;-6.296;2023-04-29T03:57:30;101578.81;;;10.29;90.50
64362;BME280;50685;53.346;-6.296;2023-04-29T04:00:31;101572.63;;;10.29;90.04
64362;BME280;50685;53.346;-6.296;2023-04-29T04:03:13;101581.53;;;10.37;89.54
64362;BME280;50685;53.346;-6.296;2023-04-29T04:06:21;101638.97;;;10.74;89.66
64362;BME280;50685;53.346;-6.296;2023-04-29T04:08:55;101585.91;;;10.34;89.68
64362;BME280;50685;53.346;-6.296;2023-04-29T04:11:29;101650.50;;;10.74;89.83
64362;BME280;50685;53.346;-6.296;2023-04-29T04:14:02;101607.16;;;10.52;89.75
64362;BME280;50685;53.346;-6.296;2023-04-29T04:16:57;101604.50;;;10.54;90.04
64362;BME280;50685;53.346;-6.296;2023-04-29T04:19:51;101583.28;;;10.41;90.12
64362;BME280;50685;53.346;-6.296;2023-04-29T04:22:28;101575.34;;;10.46;89.88
64362;BME280;50685;53.346;-6.296;2023-04-29T04:27:59;101584.16;;;10.45;89.84
64362;BME280;50685;53.346;-6.296;2023-04-29T04:30:53;101594.78;;;10.51;90.00
64362;BME280;50685;53.346;-6.296;2023-04-29T04:33:36;101589.47;;;10.51;90.21
64362;BME280;50685;53.346;-6.296;2023-04-29T04:36:28;101626.59;;;10.82;90.00
64362;BME280;50685;53.346;-6.296;2023-04-29T04:38:59;101595.66;;;10.58;90.18
64362;BME280;50685;53.346;-6.296;2023-04-29T04:41:51;101575.31;;;10.51;90.56
64362;BME280;50685;53.346;-6.296;2023-04-29T04:44:32;101580.63;;;10.60;90.55
64362;BME280;50685;53.346;-6.296;2023-04-29T04:47:18;101600.06;;;10.71;90.38
64362;BME280;50685;53.346;-6.296;2023-04-29T04:49:49;101602.72;;;10.77;90.45
64362;BME280;50685;53.346;-6.296;2023-04-29T04:52:44;101581.53;;;10.62;90.31
64362;BME280;50685;53.346;-6.296;2023-04-29T04:55:30;101658.47;;;11.04;90.85
64362;BME280;50685;53.346;-6.296;2023-04-29T04:58:17;101598.31;;;10.72;90.44
64362;BME280;50685;53.346;-6.296;2023-04-29T05:04:03;101612.47;;;10.83;91.57
64362;BME280;50685;53.346;-6.296;2023-04-29T05:06:34;101589.47;;;10.71;90.90
64362;BME280;50685;53.346;-6.296;2023-04-29T05:09:24;101640.75;;;11.03;90.85
64362;BME280;50685;53.346;-6.296;2023-04-29T05:12:10;101633.69;;;10.99;91.12
64362;BME280;50685;53.346;-6.296;2023-04-29T05:14:41;101588.59;;;10.75;91.14
64362;BME280;50685;53.346;-6.296;2023-04-29T05:17:22;101597.44;;;10.79;91.14
64362;BME280;50685;53.346;-6.296;2023-04-29T05:20:10;101667.28;;;11.21;91.61
64362;BME280;50685;53.346;-6.296;2023-04-29T05:22:41;101660.22;;;11.19;91.78
64362;BME280;50685;53.346;-6.296;2023-04-29T05:25:22;101656.66;;;11.20;92.61
64362;BME280;50685;53.346;-6.296;2023-04-29T05:27:50;101619.53;;;10.98;92.72
64362;BME280;50685;53.346;-6.296;2023-04-29T05:30:20;101676.13;;;11.31;92.54
64362;BME280;50685;53.346;-6.296;2023-04-29T05:32:57;101602.72;;;10.95;92.76
64362;BME280;50685;53.346;-6.296;2023-04-29T05:35:34;101650.44;;;11.24;92.43
64362;BME280;50685;53.346;-6.296;2023-04-29T05:38:03;101648.69;;;11.23;92.42
64362;BME280;50685;53.346;-6.296;2023-04-29T05:40:29;101607.13;;;11.05;92.38
64362;BME280;50685;53.346;-6.296;2023-04-29T05:42:55;101680.50;;;11.49;92.78
64362;BME280;50685;53.346;-6.296;2023-04-29T05:45:20;101688.50;;;11.49;93.87
64362;BME280;50685;53.346;-6.296;2023-04-29T05:47:46;101676.97;;;11.50;93.73
64362;BME280;50685;53.346;-6.296;2023-04-29T05:50:12;101685.81;;;11.51;94.46
64362;BME280;50685;53.346;-6.296;2023-04-29T05:52:38;101692.91;;;11.52;95.03
64362;BME280;50685;53.346;-6.296;2023-04-29T05:55:07;101643.38;;;11.26;95.06
64362;BME280;50685;53.346;-6.296;2023-04-29T05:57:32;101645.13;;;11.25;95.40
64362;BME280;50685;53.346;-6.296;2023-04-29T06:00:00;101684.94;;;11.50;96.15
64362;BME280;50685;53.346;-6.296;2023-04-29T06:02:34;101631.00;;;11.14;96.40
64362;BME280;50685;53.346;-6.296;2023-04-29T06:05:13;101626.59;;;11.15;96.96
64362;BME280;50685;53.346;-6.296;2023-04-29T06:07:48;101629.22;;;11.21;96.96
64362;BME280;50685;53.346;-6.296;2023-04-29T06:10:16;101619.47;;;11.18;97.40
64362;BME280;50685;53.346;-6.296;2023-04-29T06:12:55;101611.53;;;11.14;97.16
64362;BME280;50685;53.346;-6.296;2023-04-29T06:15:20;101636.28;;;11.28;97.76
64362;BME280;50685;53.346;-6.296;2023-04-29T06:17:46;101667.22;;;11.51;97.93
64362;BME280;50685;53.346;-6.296;2023-04-29T06:20:24;101636.25;;;11.34;97.60
64362;BME280;50685;53.346;-6.296;2023-04-29T06:22:53;101638.94;;;11.36;97.12
64362;BME280;50685;53.346;-6.296;2023-04-29T06:25:24;101635.34;;;11.41;97.57
64362;BME280;50685;53.346;-6.296;2023-04-29T06:27:53;101679.56;;;11.72;97.50
64362;BME280;50685;53.346;-6.296;2023-04-29T06:30:37;101701.66;;;11.86;97.79
64362;BME280;50685;53.346;-6.296;2023-04-29T06:33:05;101641.53;;;11.54;97.06
64362;BME280;50685;53.346;-6.296;2023-04-29T06:35:38;101681.28;;;11.81;97.63
64362;BME280;50685;53.346;-6.296;2023-04-29T06:38:09;101721.13;;;11.98;97.29
64362;BME280;50685;53.346;-6.296;2023-04-29T06:40:44;101705.16;;;11.99;97.84
64362;BME280;50685;53.346;-6.296;2023-04-29T06:43:10;101718.47;;;12.02;97.90
64362;BME280;50685;53.346;-6.296;2023-04-29T06:45:44;101661.84;;;11.71;97.40
64362;BME280;50685;53.346;-6.296;2023-04-29T06:48:13;101666.25;;;11.72;97.88
64362;BME280;50685;53.346;-6.296;2023-04-29T06:51:00;101662.69;;;11.79;97.64
64362;BME280;50685;53.346;-6.296;2023-04-29T06:53:30;101721.03;;;12.26;97.71
64362;BME280;50685;53.346;-6.296;2023-04-29T06:56:02;101733.41;;;12.34;97.52
64362;BME280;50685;53.346;-6.296;2023-04-29T06:58:36;101689.16;;;12.16;96.91
64362;BME280;50685;53.346;-6.296;2023-04-29T07:01:04;101728.94;;;12.43;97.21
64362;BME280;50685;53.346;-6.296;2023-04-29T07:03:41;101691.78;;;12.26;96.80
64362;BME280;50685;53.346;-6.296;2023-04-29T07:06:20;101691.78;;;12.26;96.88
64362;BME280;50685;53.346;-6.296;2023-04-29T07:09:03;101679.34;;;12.26;96.73
64362;BME280;50685;53.346;-6.296;2023-04-29T07:11:42;101700.56;;;12.40;96.29
64362;BME280;50685;53.346;-6.296;2023-04-29T07:14:13;101715.53;;;12.53;96.14
64362;BME280;50685;53.346;-6.296;2023-04-29T07:16:52;101698.75;;;12.45;96.12
64362;BME280;50685;53.346;-6.296;2023-04-29T07:19:18;101735.84;;;12.72;95.95
64362;BME280;50685;53.346;-6.296;2023-04-29T07:21:47;101741.13;;;12.76;95.77
64362;BME280;50685;53.346;-6.296;2023-04-29T07:27:01;101741.16;;;12.73;95.58
64362;BME280;50685;53.346;-6.296;2023-04-29T07:29:42;101748.19;;;12.80;95.79
64362;BME280;50685;53.346;-6.296;2023-04-29T07:32:30;101746.41;;;12.85;95.51
64362;BME280;50685;53.346;-6.296;2023-04-29T07:34:59;101700.47;;;12.56;95.25
64362;BME280;50685;53.346;-6.296;2023-04-29T07:37:33;101688.06;;;12.56;95.07
64362;BME280;50685;53.346;-6.296;2023-04-29T07:39:59;101755.19;;;12.97;95.01
64362;BME280;50685;53.346;-6.296;2023-04-29T07:42:25;101750.75;;;13.00;95.03
64362;BME280;50685;53.346;-6.296;2023-04-29T07:44:57;101725.06;;;12.90;94.41
64362;BME280;50685;53.346;-6.296;2023-04-29T07:53:11;101679.03;;;12.74;94.22
64362;BME280;50685;53.346;-6.296;2023-04-29T07:56:04;101753.22;;;13.24;93.87
64362;BME280;50685;53.346;-6.296;2023-04-29T07:58:44;101720.44;;;13.15;93.86
64362;BME280;50685;53.346;-6.296;2023-04-29T08:01:15;101751.22;;;13.50;93.88
64362;BME280;50685;53.346;-6.296;2023-04-29T08:04:24;101707.81;;;13.36;92.92
64362;BME280;50685;53.346;-6.296;2023-04-29T08:07:12;101722.72;;;13.59;92.91
64362;BME280;50685;53.346;-6.296;2023-04-29T08:09:38;101721.78;;;13.64;92.96
64362;BME280;50685;53.346;-6.296;2023-04-29T08:12:12;101754.34;;;13.93;92.37
64362;BME280;50685;53.346;-6.296;2023-04-29T08:14:45;101747.16;;;13.98;92.08
64362;BME280;50685;53.346;-6.296;2023-04-29T08:17:16;101690.56;;;13.73;91.96
64362;BME280;50685;53.346;-6.296;2023-04-29T08:19:50;101754.03;;;14.21;90.95
64362;BME280;50685;53.346;-6.296;2023-04-29T08:22:20;101744.25;;;14.20;90.86
64362;BME280;50685;53.346;-6.296;2023-04-29T08:24:49;101721.16;;;14.16;90.26
64362;BME280;50685;53.346;-6.296;2023-04-29T08:27:15;101717.56;;;14.20;90.28
64362;BME280;50685;53.346;-6.296;2023-04-29T08:30:00;101702.56;;;14.11;89.60
64362;BME280;50685;53.346;-6.296;2023-04-29T08:32:34;101751.88;;;14.49;89.78
64362;BME280;50685;53.346;-6.296;2023-04-29T08:35:13;101698.06;;;14.16;89.24
64362;BME280;50685;53.346;-6.296;2023-04-29T08:37:47;101749.13;;;14.54;89.21
64362;BME280;50685;53.346;-6.296;2023-04-29T08:40:24;101708.38;;;14.41;88.99
64362;BME280;50685;53.346;-6.296;2023-04-29T08:42:54;101756.78;;;14.82;88.56
64362;BME280;50685;53.346;-6.296;2023-04-29T08:45:41;101698.59;;;14.40;87.97
64362;BME280;50685;53.346;-6.296;2023-04-29T08:48:25;101710.91;;;14.50;87.84
64362;BME280;50685;53.346;-6.296;2023-04-29T08:50:57;101759.44;;;14.82;88.10
64362;BME280;50685;53.346;-6.296;2023-04-29T08:53:26;101704.75;;;14.45;87.76
64362;BME280;50685;53.346;-6.296;2023-04-29T08:56:21;101707.44;;;14.45;87.18
64362;BME280;50685;53.346;-6.296;2023-04-29T08:58:53;101712.66;;;14.51;87.74
64362;BME280;50685;53.346;-6.296;2023-04-29T09:01:26;101707.50;;;14.40;87.26
64362;BME280;50685;53.346;-6.296;2023-04-29T09:04:16;101757.84;;;14.68;86.58
64362;BME280;50685;53.346;-6.296;2023-04-29T09:06:58;101761.44;;;14.64;87.13
64362;BME280;50685;53.346;-6.296;2023-04-29T09:09:41;101741.19;;;14.49;86.76
64362;BME280;50685;53.346;-6.296;2023-04-29T09:12:22;101717.44;;;14.29;86.47
64362;BME280;50685;53.346;-6.296;2023-04-29T09:14:59;101727.81;;;14.51;86.81
64362;BME280;50685;53.346;-6.296;2023-04-29T09:17:41;101757.78;;;14.73;85.41
64362;BME280;50685;53.346;-6.296;2023-04-29T09:23:09;101768.19;;;15.98;83.80
64362;BME280;50685;53.346;-6.296;2023-04-29T09:25:58;101755.63;;;16.83;80.70
64362;BME280;50685;53.346;-6.296;2023-04-29T09:38:27;101688.78;;;17.80;73.84
64362;BME280;50685;53.346;-6.296;2023-04-29T09:41:13;101718.75;;;17.65;71.51
64362;BME280;50685;53.346;-6.296;2023-04-29T09:44:06;101718.28;;;17.49;72.15
64362;BME280;50685;53.346;-6.296;2023-04-29T09:50:15;101751.28;;;18.17;72.49
64362;BME280;50685;53.346;-6.296;2023-04-29T09:52:52;101730.91;;;18.98;70.32
64362;BME280;50685;53.346;-6.296;2023-04-29T10:02:20;101752.28;;;19.30;66.11
64362;BME280;50685;53.346;-6.296;2023-04-29T10:05:02;101717.31;;;18.74;68.80
64362;BME280;50685;53.346;-6.296;2023-04-29T10:07:51;101754.56;;;18.58;69.48
64362;BME280;50685;53.346;-6.296;2023-04-29T10:10:31;101720.22;;;18.08;69.79
64362;BME280;50685;53.346;-6.296;2023-04-29T10:13:14;101755.44;;;17.97;70.38
64362;BME280;50685;53.346;-6.296;2023-04-29T10:16:03;101725.56;;;17.44;70.17
64362;BME280;50685;53.346;-6.296;2023-04-29T10:18:58;101738.63;;;17.22;70.98
64362;BME280;50685;53.346;-6.296;2023-04-29T10:22:18;101728.50;;;16.98;71.78
64362;BME280;50685;53.346;-6.296;2023-04-29T10:24:47;101789.56;;;17.23;73.09
64362;BME280;50685;53.346;-6.296;2023-04-29T10:30:22;101748.81;;;16.69;73.16
64362;BME280;50685;53.346;-6.296;2023-04-29T10:32:50;101742.09;;;16.50;73.86
64362;BME280;50685;53.346;-6.296;2023-04-29T10:35:23;101765.84;;;16.67;74.21
64362;BME280;50685;53.346;-6.296;2023-04-29T10:38:15;101728.94;;;16.39;73.85
64362;BME280;50685;53.346;-6.296;2023-04-29T10:40:47;101793.53;;;16.66;74.50
64362;BME280;50685;53.346;-6.296;2023-04-29T10:43:24;101746.13;;;16.29;74.44
64362;BME280;50685;53.346;-6.296;2023-04-29T10:46:23;101747.22;;;16.20;74.47
64362;BME280;50685;53.346;-6.296;2023-04-29T10:49:07;101750.16;;;16.08;74.65
64362;BME280;50685;53.346;-6.296;2023-04-29T10:51:59;101740.50;;;15.99;75.03
64362;BME280;50685;53.346;-6.296;2023-04-29T10:55:04;101742.59;;;15.84;74.95
64362;BME280;50685;53.346;-6.296;2023-04-29T10:57:37;101771.69;;;16.01;75.32
64362;BME280;50685;53.346;-6.296;2023-04-29T11:00:21;101803.69;;;16.06;75.29
64362;BME280;50685;53.346;-6.296;2023-04-29T11:06:42;101798.00;;;16.23;75.54
64362;BME280;50685;53.346;-6.296;2023-04-29T11:09:28;101730.78;;;15.95;75.10
64362;BME280;50685;53.346;-6.296;2023-04-29T11:15:40;101789.44;;;16.48;74.31
64362;BME280;50685;53.346;-6.296;2023-04-29T11:18:14;101738.22;;;16.63;72.37
64362;BME280;50685;53.346;-6.296;2023-04-29T11:21:28;101753.03;;;16.80;71.41
64362;BME280;50685;53.346;-6.296;2023-04-29T11:27:16;101745.13;;;16.74;71.42
64362;BME280;50685;53.346;-6.296;2023-04-29T11:29:57;101749.56;;;16.75;71.41
64362;BME280;50685;53.346;-6.296;2023-04-29T11:32:55;101753.97;;;16.79;71.10
64362;BME280;50685;53.346;-6.296;2023-04-29T11:35:54;101806.66;;;17.17;70.06
64362;BME280;50685;53.346;-6.296;2023-04-29T11:38:33;101792.91;;;17.31;70.27
64362;BME280;50685;53.346;-6.296;2023-04-29T11:41:24;101794.31;;;17.48;69.23
64362;BME280;50685;53.346;-6.296;2023-04-29T11:44:23;101751.38;;;17.48;68.42
64362;BME280;50685;53.346;-6.296;2023-04-29T11:53:38;101749.47;;;18.19;66.05
64362;BME280;50685;53.346;-6.296;2023-04-29T11:56:23;101780.06;;;18.43;64.93
64362;BME280;50685;53.346;-6.296;2023-04-29T11:59:15;101772.41;;;18.59;64.52
64362;BME280;50685;53.346;-6.296;2023-04-29T12:01:56;101778.53;;;18.65;64.82
64362;BME280;50685;53.346;-6.296;2023-04-29T12:04:41;101764.00;;;18.42;64.78
64362;BME280;50685;53.346;-6.296;2023-04-29T12:10:56;101748.28;;;17.96;66.33
64362;BME280;50685;53.346;-6.296;2023-04-29T12:13:50;101741.47;;;17.83;66.38
64362;BME280;50685;53.346;-6.296;2023-04-29T12:16:55;101734.78;;;17.66;66.88
64362;BME280;50685;53.346;-6.296;2023-04-29T12:19:47;101722.34;;;17.64;66.90
64362;BME280;50685;53.346;-6.296;2023-04-29T12:22:21;101735.66;;;17.69;67.13
64362;BME280;50685;53.346;-6.296;2023-04-29T12:25:19;101714.66;;;17.50;66.57
64362;BME280;50685;53.346;-6.296;2023-04-29T12:28:32;101718.94;;;17.57;67.03
64362;BME280;50685;53.346;-6.296;2023-04-29T12:31:35;101738.31;;;17.69;67.15
64362;BME280;50685;53.346;-6.296;2023-04-29T12:34:14;101739.06;;;17.74;67.77
64362;BME280;50685;53.346;-6.296;2023-04-29T12:36:44;101696.09;;;17.75;67.34
64362;BME280;50685;53.346;-6.296;2023-04-29T12:39:49;101747.47;;;18.56;66.36
64362;BME280;50685;53.346;-6.296;2023-04-29T12:42:20;101698.13;;;18.58;64.94
64362;BME280;50685;53.346;-6.296;2023-04-29T12:45:09;101694.94;;;18.74;64.23
64362;BME280;50685;53.346;-6.296;2023-04-29T12:47:46;101745.78;;;19.62;63.08
64362;BME280;50685;53.346;-6.296;2023-04-29T12:51:02;101703.72;;;20.09;59.83
64362;BME280;50685;53.346;-6.296;2023-04-29T12:53:58;101730.44;;;20.61;57.13
64362;BME280;50685;53.346;-6.296;2023-04-29T12:57:08;101690.81;;;20.63;57.29
64362;BME280;50685;53.346;-6.296;2023-04-29T13:00:02;101731.09;;;21.12;55.67
64362;BME280;50685;53.346;-6.296;2023-04-29T13:10:12;101735.91;;;21.46;55.23
64362;BME280;50685;53.346;-6.296;2023-04-29T13:13:13;101677.19;;;21.31;55.54
64362;BME280;50685;53.346;-6.296;2023-04-29T13:19:38;101677.50;;;21.66;53.80
64362;BME280;50685;53.346;-6.296;2023-04-29T13:22:10;101723.84;;;22.15;53.82
64362;BME280;50685;53.346;-6.296;2023-04-29T13:24:38;101726.16;;;22.04;54.08
64362;BME280;50685;53.346;-6.296;2023-04-29T13:30:38;101721.41;;;21.49;55.42
64362;BME280;50685;53.346;-6.296;2023-04-29T13:33:24;101721.81;;;21.19;56.35
64362;BME280;50685;53.346;-6.296;2023-04-29T13:35:49;101672.50;;;21.15;56.30
64362;BME280;50685;53.346;-6.296;2023-04-29T13:38:32;101718.38;;;21.57;55.34
64362;BME280;50685;53.346;-6.296;2023-04-29T13:41:05;101651.44;;;21.03;56.25
64362;BME280;50685;53.346;-6.296;2023-04-29T13:43:43;101722.94;;;21.13;55.70
64362;BME280;50685;53.346;-6.296;2023-04-29T13:46:39;101705.69;;;20.95;56.91
64362;BME280;50685;53.346;-6.296;2023-04-29T13:49:22;101659.91;;;20.49;57.04
64362;BME280;50685;53.346;-6.296;2023-04-29T13:52:09;101682.66;;;20.64;57.47
64362;BME280;50685;53.346;-6.296;2023-04-29T13:54:38;101658.41;;;20.42;57.56
64362;BME280;50685;53.346;-6.296;2023-04-29T13:57:04;101657.03;;;20.32;57.89
64362;BME280;50685;53.346;-6.296;2023-04-29T13:59:33;101660.59;;;20.32;57.77
64362;BME280;50685;53.346;-6.296;2023-04-29T14:02:02;101666.88;;;20.33;58.01
64362;BME280;50685;53.346;-6.296;2023-04-29T14:07:43;101686.78;;;20.29;58.60
64362;BME280;50685;53.346;-6.296;2023-04-29T14:10:22;101647.28;;;20.05;58.61
64362;BME280;50685;53.346;-6.296;2023-04-29T14:12:56;101663.56;;;20.48;58.46
64362;BME280;50685;53.346;-6.296;2023-04-29T14:15:33;101701.72;;;20.60;58.54
64362;BME280;50685;53.346;-6.296;2023-04-29T14:18:18;101712.66;;;20.79;57.62
64362;BME280;50685;53.346;-6.296;2023-04-29T14:21:07;101673.72;;;20.86;57.34
64362;BME280;50685;53.346;-6.296;2023-04-29T14:26:27;101664.38;;;20.95;56.44
64362;BME280;50685;53.346;-6.296;2023-04-29T14:29:10;101637.59;;;20.68;56.02
64362;BME280;50685;53.346;-6.296;2023-04-29T14:32:05;101643.38;;;20.59;57.14
64362;BME280;50685;53.346;-6.296;2023-04-29T14:34:39;101667.44;;;20.63;58.19
64362;BME280;50685;53.346;-6.296;2023-04-29T14:37:23;101638.88;;;20.37;58.42
64362;BME280;50685;53.346;-6.296;2023-04-29T14:39:57;101633.97;;;20.25;58.03
64362;BME280;50685;53.346;-6.296;2023-04-29T14:46:09;101686.78;;;20.29;58.86
64362;BME280;50685;53.346;-6.296;2023-04-29T14:48:46;101608.72;;;19.81;58.86
64362;BME280;50685;53.346;-6.296;2023-04-29T14:54:37;101644.69;;;19.30;60.32
64362;BME280;50685;53.346;-6.296;2023-04-29T15:00:21;101685.63;;;19.13;60.15
64362;BME280;50685;53.346;-6.296;2023-04-29T15:03:03;101636.47;;;18.54;59.60
64362;BME280;50685;53.346;-6.296;2023-04-29T15:05:29;101632.97;;;18.23;59.31
64362;BME280;50685;53.346;-6.296;2023-04-29T15:08:05;101677.22;;;18.40;59.51
64362;BME280;50685;53.346;-6.296;2023-04-29T15:10:35;101694.16;;;18.42;59.58
64362;BME280;50685;53.346;-6.296;2023-04-29T15:13:12;101655.66;;;18.13;60.28
64362;BME280;50685;53.346;-6.296;2023-04-29T15:16:01;101664.00;;;18.04;61.25
64362;BME280;50685;53.346;-6.296;2023-04-29T15:18:28;101694.66;;;18.26;61.77
64362;BME280;50685;53.346;-6.296;2023-04-29T15:20:57;101694.84;;;18.77;60.80
64362;BME280;50685;53.346;-6.296;2023-04-29T15:23:39;101611.41;;;18.80;59.68
64362;BME280;50685;53.346;-6.296;2023-04-29T15:29:28;101629.81;;;19.19;59.22
64362;BME280;50685;53.346;-6.296;2023-04-29T15:32:19;101641.13;;;19.53;58.77
64362;BME280;50685;53.346;-6.296;2023-04-29T15:35:00;101655.81;;;19.69;58.84
64362;BME280;50685;53.346;-6.296;2023-04-29T15:37:26;101643.34;;;19.67;58.87
64362;BME280;50685;53.346;-6.296;2023-04-29T15:39:57;101658.00;;;19.83;58.77
64362;BME280;50685;53.346;-6.296;2023-04-29T15:42:33;101652.97;;;19.98;58.96
64362;BME280;50685;53.346;-6.296;2023-04-29T15:45:04;101639.03;;;20.10;58.63
64362;BME280;50685;53.346;-6.296;2023-04-29T15:48:18;101622.91;;;19.86;58.37